sensor_id;sensor_type;location;lat;lon;timestamp;P1;durP1;ratioP1;P2;durP2;ratioP2
49592;SDS011;35499;51.482;4.264;2024-02-15T00:01:30;11.98;;;3.38;;
49592;SDS011;35499;51.482;4.264;2024-02-15T00:03:55;10.80;;;3.93;;
49592;SDS011;35499;51.482;4.264;2024-02-15T00:06:20;8.15;;;3.65;;
49592;SDS011;35499;51.482;4.264;2024-02-15T00:08:46;12.20;;;4.27;;
49592;SDS011;35499;51.482;4.264;2024-02-15T00:11:11;11.60;;;3.97;;
49592;SDS011;35499;51.482;4.264;2024-02-15T00:13:39;12.18;;;4.15;;
49592;SDS011;35499;51.482;4.264;2024-02-15T00:16:04;9.15;;;3.97;;
49592;SDS011;35499;51.482;4.264;2024-02-15T00:18:31;13.57;;;4.45;;
49592;SDS011;35499;51.482;4.264;2024-02-15T00:23:22;13.00;;;4.00;;
49592;SDS011;35499;51.482;4.264;2024-02-15T00:25:47;9.93;;;3.80;;
49592;SDS011;35499;51.482;4.264;2024-02-15T00:28:12;10.57;;;3.97;;
49592;SDS011;35499;51.482;4.264;2024-02-15T00:30:38;8.52;;;3.63;;
49592;SDS011;35499;51.482;4.264;2024-02-15T00:33:03;14.70;;;4.53;;
49592;SDS011;35499;51.482;4.264;2024-02-15T00:35:29;10.82;;;3.70;;
49592;SDS011;35499;51.482;4.264;2024-02-15T00:37:54;9.55;;;4.22;;
49592;SDS011;35499;51.482;4.264;2024-02-15T00:40:19;10.20;;;4.00;;
49592;SDS011;35499;51.482;4.264;2024-02-15T00:42:46;10.35;;;4.45;;
49592;SDS011;35499;51.482;4.264;2024-02-15T00:45:11;8.73;;;3.95;;
49592;SDS011;35499;51.482;4.264;2024-02-15T00:47:37;7.75;;;3.85;;
49592;SDS011;35499;51.482;4.264;2024-02-15T00:50:07;11.77;;;4.18;;
49592;SDS011;35499;51.482;4.264;2024-02-15T00:52:33;9.23;;;3.80;;
49592;SDS011;35499;51.482;4.264;2024-02-15T00:54:59;11.35;;;3.97;;
49592;SDS011;35499;51.482;4.264;2024-02-15T00:57:24;9.63;;;3.77;;
49592;SDS011;35499;51.482;4.264;2024-02-15T00:59:49;10.53;;;4.00;;
49592;SDS011;35499;51.482;4.264;2024-02-15T01:02:17;14.95;;;4.57;;
49592;SDS011;35499;51.482;4.264;2024-02-15T01:07:34;10.15;;;3.45;;
49592;SDS011;35499;51.482;4.264;2024-02-15T01:10:00;11.25;;;3.78;;
49592;SDS011;35499;51.482;4.264;2024-02-15T01:12:25;8.80;;;3.95;;
49592;SDS011;35499;51.482;4.264;2024-02-15T01:14:51;12.38;;;5.28;;
49592;SDS011;35499;51.482;4.264;2024-02-15T01:17:16;10.27;;;3.23;;
49592;SDS011;35499;51.482;4.264;2024-02-15T01:19:42;9.93;;;3.50;;
49592;SDS011;35499;51.482;4.264;2024-02-15T01:22:07;8.73;;;3.83;;
49592;SDS011;35499;51.482;4.264;2024-02-15T01:24:32;11.63;;;3.23;;
49592;SDS011;35499;51.482;4.264;2024-02-15T01:26:58;8.83;;;3.47;;
49592;SDS011;35499;51.482;4.264;2024-02-15T01:29:23;10.65;;;3.17;;
49592;SDS011;35499;51.482;4.264;2024-02-15T01:31:50;8.85;;;3.25;;
49592;SDS011;35499;51.482;4.264;2024-02-15T01:34:16;8.18;;;3.30;;
49592;SDS011;35499;51.482;4.264;2024-02-15T01:36:42;9.02;;;3.40;;
49592;SDS011;35499;51.482;4.264;2024-02-15T01:39:07;9.43;;;3.38;;
49592;SDS011;35499;51.482;4.264;2024-02-15T01:41:32;11.27;;;3.22;;
49592;SDS011;35499;51.482;4.264;2024-02-15T01:43:58;8.43;;;2.80;;
49592;SDS011;35499;51.482;4.264;2024-02-15T01:46:23;6.23;;;2.63;;
49592;SDS011;35499;51.482;4.264;2024-02-15T01:48:50;10.07;;;3.10;;
49592;SDS011;35499;51.482;4.264;2024-02-15T01:51:16;8.77;;;2.55;;
49592;SDS011;35499;51.482;4.264;2024-02-15T01:53:43;10.45;;;2.42;;
49592;SDS011;35499;51.482;4.264;2024-02-15T01:56:08;10.43;;;2.58;;
49592;SDS011;35499;51.482;4.264;2024-02-15T01:58:36;8.43;;;2.72;;
49592;SDS011;35499;51.482;4.264;2024-02-15T02:01:05;12.13;;;2.90;;
49592;SDS011;35499;51.482;4.264;2024-02-15T02:03:31;8.40;;;2.80;;
49592;SDS011;35499;51.482;4.264;2024-02-15T02:05:56;11.93;;;3.50;;
49592;SDS011;35499;51.482;4.264;2024-02-15T02:08:22;8.93;;;2.40;;
49592;SDS011;35499;51.482;4.264;2024-02-15T02:10:47;7.13;;;2.33;;
49592;SDS011;35499;51.482;4.264;2024-02-15T02:13:12;10.53;;;2.50;;
49592;SDS011;35499;51.482;4.264;2024-02-15T02:15:38;10.17;;;2.73;;
49592;SDS011;35499;51.482;4.264;2024-02-15T02:18:03;10.80;;;2.80;;
49592;SDS011;35499;51.482;4.264;2024-02-15T02:20:33;9.20;;;2.97;;
49592;SDS011;35499;51.482;4.264;2024-02-15T02:23:32;8.95;;;2.65;;
49592;SDS011;35499;51.482;4.264;2024-02-15T02:25:51;10.32;;;3.42;;
49592;SDS011;35499;51.482;4.264;2024-02-15T02:28:17;7.90;;;3.33;;
49592;SDS011;35499;51.482;4.264;2024-02-15T02:30:43;7.43;;;2.70;;
49592;SDS011;35499;51.482;4.264;2024-02-15T02:33:13;8.82;;;3.38;;
49592;SDS011;35499;51.482;4.264;2024-02-15T02:35:47;13.23;;;3.55;;
49592;SDS011;35499;51.482;4.264;2024-02-15T02:38:13;7.82;;;3.33;;
49592;SDS011;35499;51.482;4.264;2024-02-15T02:40:39;11.32;;;2.40;;
49592;SDS011;35499;51.482;4.264;2024-02-15T02:43:05;7.25;;;2.60;;
49592;SDS011;35499;51.482;4.264;2024-02-15T02:45:30;8.67;;;2.57;;
49592;SDS011;35499;51.482;4.264;2024-02-15T02:47:55;13.20;;;3.47;;
49592;SDS011;35499;51.482;4.264;2024-02-15T02:50:21;10.57;;;3.33;;
49592;SDS011;35499;51.482;4.264;2024-02-15T02:52:47;13.70;;;3.47;;
49592;SDS011;35499;51.482;4.264;2024-02-15T02:55:13;11.20;;;2.95;;
49592;SDS011;35499;51.482;4.264;2024-02-15T02:57:39;5.63;;;1.85;;
49592;SDS011;35499;51.482;4.264;2024-02-15T03:00:05;9.48;;;3.03;;
49592;SDS011;35499;51.482;4.264;2024-02-15T03:02:37;13.88;;;3.13;;
49592;SDS011;35499;51.482;4.264;2024-02-15T03:05:03;13.20;;;3.15;;
49592;SDS011;35499;51.482;4.264;2024-02-15T03:07:32;6.57;;;2.63;;
49592;SDS011;35499;51.482;4.264;2024-02-15T03:09:58;12.93;;;3.67;;
49592;SDS011;35499;51.482;4.264;2024-02-15T03:12:23;12.17;;;2.83;;
49592;SDS011;35499;51.482;4.264;2024-02-15T03:14:48;10.32;;;2.97;;
49592;SDS011;35499;51.482;4.264;2024-02-15T03:17:14;8.83;;;2.90;;
49592;SDS011;35499;51.482;4.264;2024-02-15T03:19:39;12.00;;;3.00;;
49592;SDS011;35499;51.482;4.264;2024-02-15T03:22:06;8.30;;;2.50;;
49592;SDS011;35499;51.482;4.264;2024-02-15T03:24:31;9.47;;;2.60;;
49592;SDS011;35499;51.482;4.264;2024-02-15T03:26:56;6.78;;;2.90;;
49592;SDS011;35499;51.482;4.264;2024-02-15T03:29:22;6.70;;;2.80;;
49592;SDS011;35499;51.482;4.264;2024-02-15T03:31:47;9.27;;;3.17;;
49592;SDS011;35499;51.482;4.264;2024-02-15T03:34:14;8.55;;;2.80;;
49592;SDS011;35499;51.482;4.264;2024-02-15T03:36:40;7.15;;;2.40;;
49592;SDS011;35499;51.482;4.264;2024-02-15T03:39:06;13.10;;;2.92;;
49592;SDS011;35499;51.482;4.264;2024-02-15T03:41:33;11.57;;;3.17;;
49592;SDS011;35499;51.482;4.264;2024-02-15T03:43:58;21.42;;;3.60;;
49592;SDS011;35499;51.482;4.264;2024-02-15T03:46:25;11.00;;;2.85;;
49592;SDS011;35499;51.482;4.264;2024-02-15T03:48:50;8.25;;;2.75;;
49592;SDS011;35499;51.482;4.264;2024-02-15T03:51:16;8.02;;;2.45;;
49592;SDS011;35499;51.482;4.264;2024-02-15T03:53:43;12.35;;;3.45;;
49592;SDS011;35499;51.482;4.264;2024-02-15T03:56:09;6.65;;;2.05;;
49592;SDS011;35499;51.482;4.264;2024-02-15T03:58:34;7.85;;;3.15;;
49592;SDS011;35499;51.482;4.264;2024-02-15T04:01:01;8.70;;;2.72;;
49592;SDS011;35499;51.482;4.264;2024-02-15T04:03:31;11.18;;;2.35;;
49592;SDS011;35499;51.482;4.264;2024-02-15T04:05:57;10.23;;;3.60;;
49592;SDS011;35499;51.482;4.264;2024-02-15T04:08:22;11.20;;;3.42;;
49592;SDS011;35499;51.482;4.264;2024-02-15T04:10:48;7.53;;;2.65;;
49592;SDS011;35499;51.482;4.264;2024-02-15T04:13:14;9.65;;;2.78;;
49592;SDS011;35499;51.482;4.264;2024-02-15T04:15:39;8.53;;;2.73;;
49592;SDS011;35499;51.482;4.264;2024-02-15T04:18:04;9.80;;;2.57;;
49592;SDS011;35499;51.482;4.264;2024-02-15T04:20:30;9.93;;;3.22;;
49592;SDS011;35499;51.482;4.264;2024-02-15T04:22:56;7.90;;;2.67;;
49592;SDS011;35499;51.482;4.264;2024-02-15T04:25:23;10.88;;;3.15;;
49592;SDS011;35499;51.482;4.264;2024-02-15T04:27:52;7.70;;;2.53;;
49592;SDS011;35499;51.482;4.264;2024-02-15T04:30:18;11.75;;;3.50;;
49592;SDS011;35499;51.482;4.264;2024-02-15T04:32:44;10.30;;;3.13;;
49592;SDS011;35499;51.482;4.264;2024-02-15T04:35:09;7.82;;;2.88;;
49592;SDS011;35499;51.482;4.264;2024-02-15T04:37:35;6.68;;;2.42;;
49592;SDS011;35499;51.482;4.264;2024-02-15T04:40:02;9.75;;;3.15;;
49592;SDS011;35499;51.482;4.264;2024-02-15T04:42:35;10.63;;;3.10;;
49592;SDS011;35499;51.482;4.264;2024-02-15T04:45:04;7.90;;;2.67;;
49592;SDS011;35499;51.482;4.264;2024-02-15T04:47:33;7.75;;;3.95;;
49592;SDS011;35499;51.482;4.264;2024-02-15T04:49:59;11.50;;;2.85;;
49592;SDS011;35499;51.482;4.264;2024-02-15T04:52:24;11.52;;;3.55;;
49592;SDS011;35499;51.482;4.264;2024-02-15T04:54:50;11.27;;;3.78;;
49592;SDS011;35499;51.482;4.264;2024-02-15T04:57:15;9.00;;;3.03;;
49592;SDS011;35499;51.482;4.264;2024-02-15T04:59:41;11.38;;;3.70;;
49592;SDS011;35499;51.482;4.264;2024-02-15T05:02:12;8.43;;;3.10;;
49592;SDS011;35499;51.482;4.264;2024-02-15T05:04:37;11.77;;;3.97;;
49592;SDS011;35499;51.482;4.264;2024-02-15T05:07:02;9.90;;;3.60;;
49592;SDS011;35499;51.482;4.264;2024-02-15T05:09:28;9.32;;;3.67;;
49592;SDS011;35499;51.482;4.264;2024-02-15T05:11:56;11.25;;;3.78;;
49592;SDS011;35499;51.482;4.264;2024-02-15T05:14:22;12.02;;;3.35;;
49592;SDS011;35499;51.482;4.264;2024-02-15T05:16:48;10.07;;;3.38;;
49592;SDS011;35499;51.482;4.264;2024-02-15T05:19:15;10.00;;;3.38;;
49592;SDS011;35499;51.482;4.264;2024-02-15T05:21:41;9.93;;;3.50;;
49592;SDS011;35499;51.482;4.264;2024-02-15T05:24:09;10.80;;;3.65;;
49592;SDS011;35499;51.482;4.264;2024-02-15T05:26:36;12.68;;;3.80;;
49592;SDS011;35499;51.482;4.264;2024-02-15T05:29:01;12.18;;;3.60;;
49592;SDS011;35499;51.482;4.264;2024-02-15T05:31:26;12.23;;;3.20;;
49592;SDS011;35499;51.482;4.264;2024-02-15T05:33:52;10.95;;;3.70;;
49592;SDS011;35499;51.482;4.264;2024-02-15T05:36:19;11.85;;;3.20;;
49592;SDS011;35499;51.482;4.264;2024-02-15T05:38:53;11.38;;;3.22;;
49592;SDS011;35499;51.482;4.264;2024-02-15T05:41:19;10.13;;;3.20;;
49592;SDS011;35499;51.482;4.264;2024-02-15T05:43:46;8.63;;;3.05;;
49592;SDS011;35499;51.482;4.264;2024-02-15T05:46:18;8.73;;;2.88;;
49592;SDS011;35499;51.482;4.264;2024-02-15T05:48:43;14.35;;;3.53;;
49592;SDS011;35499;51.482;4.264;2024-02-15T05:51:09;13.57;;;3.60;;
49592;SDS011;35499;51.482;4.264;2024-02-15T05:53:35;12.10;;;3.97;;
49592;SDS011;35499;51.482;4.264;2024-02-15T05:56:04;15.63;;;4.95;;
49592;SDS011;35499;51.482;4.264;2024-02-15T05:58:32;8.27;;;3.03;;
49592;SDS011;35499;51.482;4.264;2024-02-15T06:00:58;12.25;;;2.65;;
49592;SDS011;35499;51.482;4.264;2024-02-15T06:03:29;9.40;;;2.92;;
49592;SDS011;35499;51.482;4.264;2024-02-15T06:05:57;7.93;;;3.30;;
49592;SDS011;35499;51.482;4.264;2024-02-15T06:08:26;12.77;;;3.38;;
49592;SDS011;35499;51.482;4.264;2024-02-15T06:10:52;9.45;;;2.65;;
49592;SDS011;35499;51.482;4.264;2024-02-15T06:13:18;7.80;;;3.30;;
49592;SDS011;35499;51.482;4.264;2024-02-15T06:15:44;14.48;;;3.25;;
49592;SDS011;35499;51.482;4.264;2024-02-15T06:18:14;11.32;;;3.33;;
49592;SDS011;35499;51.482;4.264;2024-02-15T06:20:41;9.10;;;2.67;;
49592;SDS011;35499;51.482;4.264;2024-02-15T06:23:07;12.00;;;3.00;;
49592;SDS011;35499;51.482;4.264;2024-02-15T06:25:34;6.57;;;3.40;;
49592;SDS011;35499;51.482;4.264;2024-02-15T06:28:00;9.23;;;2.35;;
49592;SDS011;35499;51.482;4.264;2024-02-15T06:30:27;10.13;;;3.03;;
49592;SDS011;35499;51.482;4.264;2024-02-15T06:33:32;5.50;;;2.40;;
49592;SDS011;35499;51.482;4.264;2024-02-15T06:36:16;10.75;;;2.95;;
49592;SDS011;35499;51.482;4.264;2024-02-15T06:39:00;11.20;;;2.55;;
49592;SDS011;35499;51.482;4.264;2024-02-15T06:41:44;8.80;;;2.55;;
49592;SDS011;35499;51.482;4.264;2024-02-15T06:44:09;8.77;;;3.07;;
49592;SDS011;35499;51.482;4.264;2024-02-15T06:46:34;5.25;;;2.22;;
49592;SDS011;35499;51.482;4.264;2024-02-15T06:49:00;6.25;;;2.15;;
49592;SDS011;35499;51.482;4.264;2024-02-15T06:51:25;4.63;;;2.37;;
49592;SDS011;35499;51.482;4.264;2024-02-15T06:53:50;6.45;;;2.42;;
49592;SDS011;35499;51.482;4.264;2024-02-15T06:56:20;9.27;;;2.42;;
49592;SDS011;35499;51.482;4.264;2024-02-15T06:58:45;11.82;;;3.10;;
49592;SDS011;35499;51.482;4.264;2024-02-15T07:01:13;8.13;;;1.80;;
49592;SDS011;35499;51.482;4.264;2024-02-15T07:03:38;8.05;;;2.03;;
49592;SDS011;35499;51.482;4.264;2024-02-15T07:06:04;4.82;;;2.42;;
49592;SDS011;35499;51.482;4.264;2024-02-15T07:08:30;5.20;;;1.80;;
49592;SDS011;35499;51.482;4.264;2024-02-15T07:13:22;11.30;;;2.00;;
49592;SDS011;35499;51.482;4.264;2024-02-15T07:15:47;6.90;;;2.53;;
49592;SDS011;35499;51.482;4.264;2024-02-15T07:18:12;7.70;;;2.43;;
49592;SDS011;35499;51.482;4.264;2024-02-15T07:20:41;6.75;;;2.28;;
49592;SDS011;35499;51.482;4.264;2024-02-15T07:23:07;5.53;;;2.00;;
49592;SDS011;35499;51.482;4.264;2024-02-15T07:25:32;4.18;;;1.92;;
49592;SDS011;35499;51.482;4.264;2024-02-15T07:27:57;8.77;;;2.80;;
49592;SDS011;35499;51.482;4.264;2024-02-15T07:30:23;4.38;;;2.25;;
49592;SDS011;35499;51.482;4.264;2024-02-15T07:32:49;5.93;;;1.60;;
49592;SDS011;35499;51.482;4.264;2024-02-15T07:35:15;6.80;;;2.05;;
49592;SDS011;35499;51.482;4.264;2024-02-15T07:37:52;7.18;;;2.25;;
49592;SDS011;35499;51.482;4.264;2024-02-15T07:40:23;4.40;;;2.30;;
49592;SDS011;35499;51.482;4.264;2024-02-15T07:42:52;7.43;;;2.05;;
49592;SDS011;35499;51.482;4.264;2024-02-15T07:45:18;8.35;;;2.30;;
49592;SDS011;35499;51.482;4.264;2024-02-15T07:47:43;7.23;;;2.10;;
49592;SDS011;35499;51.482;4.264;2024-02-15T07:50:10;8.52;;;2.78;;
49592;SDS011;35499;51.482;4.264;2024-02-15T07:52:35;6.80;;;2.25;;
49592;SDS011;35499;51.482;4.264;2024-02-15T07:55:01;7.00;;;1.92;;
49592;SDS011;35499;51.482;4.264;2024-02-15T07:57:33;4.78;;;1.70;;
49592;SDS011;35499;51.482;4.264;2024-02-15T07:59:59;7.03;;;2.33;;
49592;SDS011;35499;51.482;4.264;2024-02-15T08:02:24;7.57;;;2.37;;
49592;SDS011;35499;51.482;4.264;2024-02-15T08:04:53;6.95;;;2.25;;
49592;SDS011;35499;51.482;4.264;2024-02-15T08:07:19;7.55;;;2.13;;
49592;SDS011;35499;51.482;4.264;2024-02-15T08:09:45;6.90;;;1.80;;
49592;SDS011;35499;51.482;4.264;2024-02-15T08:12:11;7.82;;;2.08;;
49592;SDS011;35499;51.482;4.264;2024-02-15T08:14:37;6.60;;;1.77;;
49592;SDS011;35499;51.482;4.264;2024-02-15T08:17:04;7.85;;;1.55;;
49592;SDS011;35499;51.482;4.264;2024-02-15T08:19:29;4.80;;;2.00;;
49592;SDS011;35499;51.482;4.264;2024-02-15T08:21:55;7.97;;;1.70;;
49592;SDS011;35499;51.482;4.264;2024-02-15T08:24:21;9.70;;;2.45;;
49592;SDS011;35499;51.482;4.264;2024-02-15T08:26:46;5.32;;;1.80;;
49592;SDS011;35499;51.482;4.264;2024-02-15T08:29:12;4.88;;;1.48;;
49592;SDS011;35499;51.482;4.264;2024-02-15T08:31:39;7.13;;;2.03;;
49592;SDS011;35499;51.482;4.264;2024-02-15T08:34:06;7.50;;;1.88;;
49592;SDS011;35499;51.482;4.264;2024-02-15T08:36:34;6.45;;;1.77;;
49592;SDS011;35499;51.482;4.264;2024-02-15T08:39:00;6.73;;;1.80;;
49592;SDS011;35499;51.482;4.264;2024-02-15T08:41:26;6.97;;;2.50;;
49592;SDS011;35499;51.482;4.264;2024-02-15T08:43:52;7.13;;;1.52;;
49592;SDS011;35499;51.482;4.264;2024-02-15T08:46:18;6.03;;;1.58;;
49592;SDS011;35499;51.482;4.264;2024-02-15T08:48:44;7.03;;;1.92;;
49592;SDS011;35499;51.482;4.264;2024-02-15T08:51:11;4.72;;;1.80;;
49592;SDS011;35499;51.482;4.264;2024-02-15T08:53:37;5.63;;;1.73;;
49592;SDS011;35499;51.482;4.264;2024-02-15T08:56:03;5.50;;;1.53;;
49592;SDS011;35499;51.482;4.264;2024-02-15T08:58:29;6.63;;;1.55;;
49592;SDS011;35499;51.482;4.264;2024-02-15T09:00:55;6.63;;;1.70;;
49592;SDS011;35499;51.482;4.264;2024-02-15T09:03:23;4.82;;;1.50;;
49592;SDS011;35499;51.482;4.264;2024-02-15T09:05:49;4.43;;;1.58;;
49592;SDS011;35499;51.482;4.264;2024-02-15T09:08:14;6.47;;;2.23;;
49592;SDS011;35499;51.482;4.264;2024-02-15T09:10:45;4.47;;;1.52;;
49592;SDS011;35499;51.482;4.264;2024-02-15T09:13:10;5.83;;;1.97;;
49592;SDS011;35499;51.482;4.264;2024-02-15T09:15:35;5.10;;;2.05;;
49592;SDS011;35499;51.482;4.264;2024-02-15T09:18:00;6.57;;;2.10;;
49592;SDS011;35499;51.482;4.264;2024-02-15T09:20:26;6.93;;;2.33;;
49592;SDS011;35499;51.482;4.264;2024-02-15T09:25:22;7.90;;;1.80;;
49592;SDS011;35499;51.482;4.264;2024-02-15T09:27:51;5.28;;;2.30;;
49592;SDS011;35499;51.482;4.264;2024-02-15T09:30:18;4.85;;;1.80;;
49592;SDS011;35499;51.482;4.264;2024-02-15T09:32:44;6.03;;;2.10;;
49592;SDS011;35499;51.482;4.264;2024-02-15T09:35:10;6.88;;;2.67;;
49592;SDS011;35499;51.482;4.264;2024-02-15T09:37:45;3.22;;;1.80;;
49592;SDS011;35499;51.482;4.264;2024-02-15T09:40:15;7.10;;;2.20;;
49592;SDS011;35499;51.482;4.264;2024-02-15T09:42:45;5.60;;;1.75;;
49592;SDS011;35499;51.482;4.264;2024-02-15T09:45:12;6.68;;;2.00;;
49592;SDS011;35499;51.482;4.264;2024-02-15T09:47:40;6.45;;;2.92;;
49592;SDS011;35499;51.482;4.264;2024-02-15T09:50:06;6.10;;;2.65;;
49592;SDS011;35499;51.482;4.264;2024-02-15T09:52:33;6.72;;;2.15;;
49592;SDS011;35499;51.482;4.264;2024-02-15T09:55:02;7.90;;;2.20;;
49592;SDS011;35499;51.482;4.264;2024-02-15T09:57:28;4.38;;;1.77;;
49592;SDS011;35499;51.482;4.264;2024-02-15T09:59:54;9.10;;;2.15;;
49592;SDS011;35499;51.482;4.264;2024-02-15T10:04:30;5.35;;;2.10;;
49592;SDS011;35499;51.482;4.264;2024-02-15T10:06:59;6.18;;;1.75;;
49592;SDS011;35499;51.482;4.264;2024-02-15T10:09:28;3.67;;;1.80;;
49592;SDS011;35499;51.482;4.264;2024-02-15T10:11:57;5.65;;;1.92;;
49592;SDS011;35499;51.482;4.264;2024-02-15T10:16:49;3.50;;;1.55;;
49592;SDS011;35499;51.482;4.264;2024-02-15T10:19:15;7.25;;;2.25;;
49592;SDS011;35499;51.482;4.264;2024-02-15T10:21:42;2.80;;;1.23;;
49592;SDS011;35499;51.482;4.264;2024-02-15T10:24:08;4.95;;;1.92;;
49592;SDS011;35499;51.482;4.264;2024-02-15T10:26:34;5.07;;;1.35;;
49592;SDS011;35499;51.482;4.264;2024-02-15T10:29:07;4.38;;;1.52;;
49592;SDS011;35499;51.482;4.264;2024-02-15T10:31:34;4.20;;;1.73;;
49592;SDS011;35499;51.482;4.264;2024-02-15T10:34:04;5.38;;;1.85;;
49592;SDS011;35499;51.482;4.264;2024-02-15T10:36:30;5.30;;;1.15;;
49592;SDS011;35499;51.482;4.264;2024-02-15T10:41:44;3.13;;;1.48;;
49592;SDS011;35499;51.482;4.264;2024-02-15T10:44:17;4.88;;;1.38;;
49592;SDS011;35499;51.482;4.264;2024-02-15T10:46:44;3.38;;;1.33;;
49592;SDS011;35499;51.482;4.264;2024-02-15T10:49:17;2.97;;;1.15;;
49592;SDS011;35499;51.482;4.264;2024-02-15T10:51:44;7.70;;;2.35;;
49592;SDS011;35499;51.482;4.264;2024-02-15T10:54:13;4.50;;;1.55;;
49592;SDS011;35499;51.482;4.264;2024-02-15T10:56:46;4.80;;;1.58;;
49592;SDS011;35499;51.482;4.264;2024-02-15T10:59:18;4.45;;;1.30;;
49592;SDS011;35499;51.482;4.264;2024-02-15T11:01:49;7.35;;;1.90;;
49592;SDS011;35499;51.482;4.264;2024-02-15T11:04:19;6.75;;;1.60;;
49592;SDS011;35499;51.482;4.264;2024-02-15T11:06:50;4.35;;;1.90;;
49592;SDS011;35499;51.482;4.264;2024-02-15T11:09:16;3.47;;;1.20;;
49592;SDS011;35499;51.482;4.264;2024-02-15T11:11:41;6.50;;;1.33;;
49592;SDS011;35499;51.482;4.264;2024-02-15T11:14:22;5.60;;;1.77;;
49592;SDS011;35499;51.482;4.264;2024-02-15T11:16:49;4.88;;;1.40;;
49592;SDS011;35499;51.482;4.264;2024-02-15T11:21:59;6.82;;;1.60;;
49592;SDS011;35499;51.482;4.264;2024-02-15T11:24:29;2.90;;;1.20;;
49592;SDS011;35499;51.482;4.264;2024-02-15T11:27:00;7.03;;;1.02;;
49592;SDS011;35499;51.482;4.264;2024-02-15T11:32:37;3.95;;;1.17;;
49592;SDS011;35499;51.482;4.264;2024-02-15T11:37:54;4.97;;;1.17;;
49592;SDS011;35499;51.482;4.264;2024-02-15T11:43:07;4.85;;;1.35;;
49592;SDS011;35499;51.482;4.264;2024-02-15T11:45:34;4.25;;;1.38;;
49592;SDS011;35499;51.482;4.264;2024-02-15T11:48:06;4.35;;;1.25;;
49592;SDS011;35499;51.482;4.264;2024-02-15T11:50:36;3.70;;;1.55;;
49592;SDS011;35499;51.482;4.264;2024-02-15T11:53:03;3.97;;;1.23;;
49592;SDS011;35499;51.482;4.264;2024-02-15T11:55:39;3.20;;;1.40;;
49592;SDS011;35499;51.482;4.264;2024-02-15T12:00:34;4.40;;;1.08;;
49592;SDS011;35499;51.482;4.264;2024-02-15T12:03:19;5.40;;;1.90;;
49592;SDS011;35499;51.482;4.264;2024-02-15T12:06:03;4.45;;;2.22;;
49592;SDS011;35499;51.482;4.264;2024-02-15T12:08:48;4.20;;;1.88;;
49592;SDS011;35499;51.482;4.264;2024-02-15T12:11:35;7.85;;;1.90;;
49592;SDS011;35499;51.482;4.264;2024-02-15T12:14:19;8.05;;;3.10;;
49592;SDS011;35499;51.482;4.264;2024-02-15T12:17:06;4.97;;;1.92;;
49592;SDS011;35499;51.482;4.264;2024-02-15T12:19:53;5.28;;;1.88;;
49592;SDS011;35499;51.482;4.264;2024-02-15T12:22:21;6.68;;;1.65;;
49592;SDS011;35499;51.482;4.264;2024-02-15T12:24:54;6.85;;;1.75;;
49592;SDS011;35499;51.482;4.264;2024-02-15T12:27:20;5.78;;;1.50;;
49592;SDS011;35499;51.482;4.264;2024-02-15T12:29:52;5.65;;;1.70;;
49592;SDS011;35499;51.482;4.264;2024-02-15T12:32:24;6.20;;;1.25;;
49592;SDS011;35499;51.482;4.264;2024-02-15T12:34:51;6.25;;;1.92;;
49592;SDS011;35499;51.482;4.264;2024-02-15T12:37:22;5.80;;;1.45;;
49592;SDS011;35499;51.482;4.264;2024-02-15T12:39:48;3.95;;;1.42;;
49592;SDS011;35499;51.482;4.264;2024-02-15T12:42:17;4.45;;;1.40;;
49592;SDS011;35499;51.482;4.264;2024-02-15T12:44:44;5.78;;;1.65;;
49592;SDS011;35499;51.482;4.264;2024-02-15T12:47:20;6.20;;;1.58;;
49592;SDS011;35499;51.482;4.264;2024-02-15T12:49:50;4.60;;;1.70;;
49592;SDS011;35499;51.482;4.264;2024-02-15T12:57:34;2.97;;;1.20;;
49592;SDS011;35499;51.482;4.264;2024-02-15T13:00:01;4.50;;;1.08;;
49592;SDS011;35499;51.482;4.264;2024-02-15T13:02:26;3.35;;;0.98;;
49592;SDS011;35499;51.482;4.264;2024-02-15T13:04:57;3.83;;;1.10;;
49592;SDS011;35499;51.482;4.264;2024-02-15T13:07:23;5.43;;;1.73;;
49592;SDS011;35499;51.482;4.264;2024-02-15T13:09:48;3.10;;;1.20;;
49592;SDS011;35499;51.482;4.264;2024-02-15T13:12:14;4.45;;;1.20;;
49592;SDS011;35499;51.482;4.264;2024-02-15T13:14:39;3.53;;;1.03;;
49592;SDS011;35499;51.482;4.264;2024-02-15T13:17:05;5.47;;;1.40;;
49592;SDS011;35499;51.482;4.264;2024-02-15T13:19:31;2.50;;;1.17;;
49592;SDS011;35499;51.482;4.264;2024-02-15T13:21:56;2.45;;;0.98;;
49592;SDS011;35499;51.482;4.264;2024-02-15T13:24:22;3.75;;;0.90;;
49592;SDS011;35499;51.482;4.264;2024-02-15T13:26:54;4.43;;;1.13;;
49592;SDS011;35499;51.482;4.264;2024-02-15T13:29:21;5.63;;;1.77;;
49592;SDS011;35499;51.482;4.264;2024-02-15T13:31:46;4.05;;;0.80;;
49592;SDS011;35499;51.482;4.264;2024-02-15T13:34:12;3.27;;;0.60;;
49592;SDS011;35499;51.482;4.264;2024-02-15T13:36:37;3.37;;;0.80;;
49592;SDS011;35499;51.482;4.264;2024-02-15T13:39:03;3.15;;;0.82;;
49592;SDS011;35499;51.482;4.264;2024-02-15T13:41:29;5.97;;;0.77;;
49592;SDS011;35499;51.482;4.264;2024-02-15T13:43:55;2.87;;;0.77;;
49592;SDS011;35499;51.482;4.264;2024-02-15T13:46:20;3.33;;;0.80;;
49592;SDS011;35499;51.482;4.264;2024-02-15T13:48:45;3.63;;;0.90;;
49592;SDS011;35499;51.482;4.264;2024-02-15T13:51:11;7.47;;;1.40;;
49592;SDS011;35499;51.482;4.264;2024-02-15T13:53:36;4.57;;;0.80;;
49592;SDS011;35499;51.482;4.264;2024-02-15T13:56:02;3.80;;;1.00;;
49592;SDS011;35499;51.482;4.264;2024-02-15T13:58:27;2.75;;;0.80;;
49592;SDS011;35499;51.482;4.264;2024-02-15T14:00:53;4.78;;;0.65;;
49592;SDS011;35499;51.482;4.264;2024-02-15T14:03:18;2.90;;;1.08;;
49592;SDS011;35499;51.482;4.264;2024-02-15T14:05:46;3.70;;;1.20;;
49592;SDS011;35499;51.482;4.264;2024-02-15T14:08:14;2.13;;;0.47;;
49592;SDS011;35499;51.482;4.264;2024-02-15T14:10:40;2.58;;;0.90;;
49592;SDS011;35499;51.482;4.264;2024-02-15T14:13:05;5.60;;;0.80;;
49592;SDS011;35499;51.482;4.264;2024-02-15T14:15:33;5.05;;;0.88;;
49592;SDS011;35499;51.482;4.264;2024-02-15T14:18:06;3.53;;;0.50;;
49592;SDS011;35499;51.482;4.264;2024-02-15T14:20:31;3.92;;;0.50;;
49592;SDS011;35499;51.482;4.264;2024-02-15T14:22:57;2.25;;;0.80;;
49592;SDS011;35499;51.482;4.264;2024-02-15T14:25:23;2.28;;;0.73;;
49592;SDS011;35499;51.482;4.264;2024-02-15T14:27:50;2.85;;;0.98;;
49592;SDS011;35499;51.482;4.264;2024-02-15T14:30:17;2.45;;;0.57;;
49592;SDS011;35499;51.482;4.264;2024-02-15T14:33:02;2.35;;;0.95;;
49592;SDS011;35499;51.482;4.264;2024-02-15T14:35:34;2.33;;;0.75;;
49592;SDS011;35499;51.482;4.264;2024-02-15T14:38:03;2.33;;;0.45;;
49592;SDS011;35499;51.482;4.264;2024-02-15T14:40:40;2.15;;;0.70;;
49592;SDS011;35499;51.482;4.264;2024-02-15T14:43:10;4.00;;;0.70;;
49592;SDS011;35499;51.482;4.264;2024-02-15T14:45:37;4.15;;;0.77;;
49592;SDS011;35499;51.482;4.264;2024-02-15T14:48:05;2.08;;;0.50;;
49592;SDS011;35499;51.482;4.264;2024-02-15T14:50:41;2.97;;;0.75;;
49592;SDS011;35499;51.482;4.264;2024-02-15T14:53:07;2.75;;;0.63;;
49592;SDS011;35499;51.482;4.264;2024-02-15T14:55:35;3.30;;;0.80;;
49592;SDS011;35499;51.482;4.264;2024-02-15T14:58:04;3.88;;;0.95;;
49592;SDS011;35499;51.482;4.264;2024-02-15T15:00:35;2.55;;;0.75;;
49592;SDS011;35499;51.482;4.264;2024-02-15T15:03:02;4.05;;;0.75;;
49592;SDS011;35499;51.482;4.264;2024-02-15T15:05:28;2.53;;;0.73;;
49592;SDS011;35499;51.482;4.264;2024-02-15T15:08:12;3.47;;;0.77;;
49592;SDS011;35499;51.482;4.264;2024-02-15T15:10:55;2.05;;;0.73;;
49592;SDS011;35499;51.482;4.264;2024-02-15T15:13:39;2.63;;;1.15;;
49592;SDS011;35499;51.482;4.264;2024-02-15T15:16:05;2.75;;;0.60;;
49592;SDS011;35499;51.482;4.264;2024-02-15T15:18:32;4.00;;;0.80;;
49592;SDS011;35499;51.482;4.264;2024-02-15T15:20:58;2.00;;;0.63;;
49592;SDS011;35499;51.482;4.264;2024-02-15T15:23:26;2.58;;;0.70;;
49592;SDS011;35499;51.482;4.264;2024-02-15T15:25:55;3.40;;;0.63;;